createdAt,value
2023-03-31T00:00:51.629Z,3.08
2023-03-31T00:03:21.705Z,3.10
2023-03-31T00:05:48.734Z,3.17
2023-03-31T00:08:15.046Z,2.20
2023-03-31T00:10:45.504Z,2.72
2023-03-31T00:13:12.319Z,3.10
2023-03-31T00:15:38.907Z,3.38
2023-03-31T00:18:05.926Z,3.83
2023-03-31T00:20:33.520Z,2.97
2023-03-31T00:23:01.793Z,3.00
2023-03-31T00:25:28.146Z,4.25
2023-03-31T00:27:54.796Z,3.35
2023-03-31T00:30:21.431Z,2.72
2023-03-31T00:32:47.795Z,3.53
2023-03-31T00:35:14.173Z,3.33
2023-03-31T00:37:40.481Z,2.30
2023-03-31T00:40:09.951Z,2.33
2023-03-31T00:42:42.880Z,6.00
2023-03-31T00:45:15.454Z,2.08
2023-03-31T00:47:52.906Z,2.60
2023-03-31T00:50:25.977Z,2.63
2023-03-31T00:53:00.636Z,2.42
2023-03-31T00:55:33.255Z,3.78
2023-03-31T00:58:01.926Z,3.15
2023-03-31T01:00:30.203Z,2.75
2023-03-31T01:02:58.693Z,2.97
2023-03-31T01:05:32.086Z,2.65
2023-03-31T01:07:59.220Z,3.78
2023-03-31T01:10:26.996Z,3.78
2023-03-31T01:12:54.329Z,3.85
2023-03-31T01:15:20.704Z,3.80
2023-03-31T01:17:49.560Z,3.40
2023-03-31T01:20:22.056Z,2.72
2023-03-31T01:23:07.406Z,2.92
2023-03-31T01:25:38.658Z,1.83
2023-03-31T01:28:17.015Z,4.28
2023-03-31T01:30:51.870Z,2.65
2023-03-31T01:33:24.368Z,2.60
2023-03-31T01:36:09.559Z,3.35
2023-03-31T01:38:48.211Z,2.95
2023-03-31T01:41:26.936Z,3.28
2023-03-31T01:44:19.419Z,4.05
2023-03-31T01:46:54.695Z,4.88
2023-03-31T01:49:21.039Z,4.13
2023-03-31T01:52:00.303Z,4.65
2023-03-31T01:54:33.718Z,5.03
2023-03-31T01:57:06.974Z,3.75
2023-03-31T01:59:36.650Z,4.47
2023-03-31T02:02:06.479Z,6.57
2023-03-31T02:04:42.317Z,3.90
2023-03-31T02:07:14.804Z,4.15
2023-03-31T02:09:44.140Z,4.72
2023-03-31T02:12:12.002Z,5.70
2023-03-31T02:14:42.123Z,3.30
2023-03-31T02:17:10.062Z,4.32
2023-03-31T02:19:39.663Z,7.47
2023-03-31T02:22:08.797Z,3.75
2023-03-31T02:24:36.517Z,3.65
2023-03-31T02:27:25.833Z,4.75
2023-03-31T02:29:52.601Z,4.68
2023-03-31T02:32:25.182Z,2.70
2023-03-31T02:34:51.580Z,2.97
2023-03-31T02:37:18.075Z,4.45
2023-03-31T02:39:46.413Z,4.85
2023-03-31T02:42:13.010Z,4.70
2023-03-31T02:44:40.072Z,3.58
2023-03-31T02:47:08.084Z,5.40
2023-03-31T02:49:34.966Z,5.15
2023-03-31T02:52:13.530Z,4.82
2023-03-31T02:54:58.551Z,3.72
2023-03-31T02:57:34.003Z,4.57
2023-03-31T03:00:06.823Z,3.97
2023-03-31T03:02:52.204Z,4.07
2023-03-31T03:05:23.829Z,4.70
2023-03-31T03:07:53.144Z,6.30
2023-03-31T03:10:38.320Z,3.83
2023-03-31T03:13:19.868Z,4.35
2023-03-31T03:15:49.490Z,4.72
2023-03-31T03:18:15.812Z,4.32
2023-03-31T03:20:42.859Z,5.85
2023-03-31T03:23:09.161Z,4.03
2023-03-31T03:25:35.486Z,3.03
2023-03-31T03:28:01.775Z,3.42
2023-03-31T03:30:28.064Z,5.25
2023-03-31T03:32:56.062Z,3.42
2023-03-31T03:35:22.449Z,3.47
2023-03-31T03:37:48.770Z,4.70
2023-03-31T03:40:15.358Z,4.47
2023-03-31T03:42:41.714Z,3.67
2023-03-31T03:45:08.286Z,3.15
2023-03-31T03:47:36.023Z,2.72
2023-03-31T03:50:02.877Z,4.38
2023-03-31T03:52:29.162Z,2.95
2023-03-31T03:54:55.855Z,4.13
2023-03-31T03:57:22.199Z,3.35
2023-03-31T03:59:48.642Z,4.60
2023-03-31T04:02:14.998Z,3.17
2023-03-31T04:04:41.590Z,2.88
2023-03-31T04:07:07.948Z,4.25
2023-03-31T04:09:34.339Z,4.90
2023-03-31T04:12:00.726Z,5.70
2023-03-31T04:14:27.094Z,4.45
2023-03-31T04:16:56.182Z,3.33
2023-03-31T04:19:25.795Z,4.82
2023-03-31T04:21:58.747Z,5.13
2023-03-31T04:24:30.891Z,3.38
2023-03-31T04:26:57.810Z,3.83
2023-03-31T04:29:26.555Z,4.93
2023-03-31T04:31:59.166Z,1.85
2023-03-31T04:34:35.771Z,3.42
2023-03-31T04:37:02.894Z,3.25
2023-03-31T04:39:32.798Z,3.88
2023-03-31T04:42:00.011Z,3.97
2023-03-31T04:44:27.111Z,4.45
2023-03-31T04:46:53.754Z,3.30
2023-03-31T04:49:20.150Z,4.50
2023-03-31T04:51:46.855Z,5.35
2023-03-31T04:54:13.291Z,6.57
2023-03-31T04:56:39.574Z,7.25
2023-03-31T04:59:05.989Z,3.85
2023-03-31T05:01:33.230Z,6.18
2023-03-31T05:03:59.844Z,4.43
2023-03-31T05:06:27.139Z,3.67
2023-03-31T05:08:53.465Z,4.38
2023-03-31T05:11:20.518Z,5.25
2023-03-31T05:13:46.907Z,2.95
2023-03-31T05:16:14.765Z,4.90
2023-03-31T05:18:41.927Z,4.18
2023-03-31T05:21:18.659Z,4.05
2023-03-31T05:23:45.975Z,2.53
2023-03-31T05:26:13.598Z,4.28
2023-03-31T05:28:40.386Z,7.03
2023-03-31T05:31:07.536Z,3.30
2023-03-31T05:33:34.509Z,5.72
2023-03-31T05:36:01.223Z,2.40
2023-03-31T05:38:31.622Z,4.38
2023-03-31T05:40:58.316Z,2.78
2023-03-31T05:43:24.698Z,3.33
2023-03-31T05:45:51.049Z,2.80
2023-03-31T05:48:17.523Z,3.70
2023-03-31T05:50:44.109Z,2.85
2023-03-31T05:53:10.737Z,4.05
2023-03-31T05:55:37.171Z,5.43
2023-03-31T05:58:03.573Z,3.47
2023-03-31T06:00:29.864Z,3.55
2023-03-31T06:02:56.665Z,4.07
2023-03-31T06:05:26.470Z,2.50
2023-03-31T06:07:53.539Z,2.92
2023-03-31T06:10:20.180Z,3.90
2023-03-31T06:12:46.504Z,2.83
2023-03-31T06:15:12.845Z,3.90
2023-03-31T06:17:39.366Z,5.05
2023-03-31T06:20:16.333Z,5.20
2023-03-31T06:22:53.108Z,2.60
2023-03-31T06:25:19.448Z,6.30
2023-03-31T06:27:45.739Z,4.70
2023-03-31T06:30:12.330Z,6.30
2023-03-31T06:32:38.617Z,2.90
2023-03-31T06:35:05.085Z,4.53
2023-03-31T06:37:31.468Z,3.55
2023-03-31T06:39:57.796Z,6.32
2023-03-31T06:42:24.198Z,4.28
2023-03-31T06:44:50.453Z,4.35
2023-03-31T06:47:16.840Z,2.95
2023-03-31T06:49:43.145Z,8.00
2023-03-31T06:52:09.467Z,4.28
2023-03-31T06:54:35.933Z,3.40
2023-03-31T06:57:02.280Z,7.15
2023-03-31T06:59:28.588Z,7.53
2023-03-31T07:01:55.109Z,5.07
2023-03-31T07:04:21.610Z,7.38
2023-03-31T07:06:47.910Z,6.05
2023-03-31T07:09:14.259Z,5.75
2023-03-31T07:11:40.715Z,3.75
2023-03-31T07:14:07.033Z,7.72
2023-03-31T07:16:33.503Z,6.03
2023-03-31T07:18:59.857Z,5.30
2023-03-31T07:21:26.486Z,7.32
2023-03-31T07:23:52.758Z,8.43
2023-03-31T07:26:19.134Z,6.63
2023-03-31T07:28:45.628Z,6.45
2023-03-31T07:31:12.687Z,4.72
2023-03-31T07:33:39.007Z,7.25
2023-03-31T07:36:12.546Z,5.65
2023-03-31T07:38:46.643Z,6.13
2023-03-31T07:41:13.587Z,3.95
2023-03-31T07:43:40.218Z,5.43
2023-03-31T07:46:08.745Z,6.68
2023-03-31T07:48:35.320Z,4.03
2023-03-31T07:51:01.679Z,5.10
2023-03-31T07:53:28.015Z,6.13
2023-03-31T07:55:54.263Z,4.13
2023-03-31T07:58:20.592Z,6.25
2023-03-31T08:00:46.889Z,6.97
2023-03-31T08:03:13.248Z,5.32
2023-03-31T08:05:39.608Z,4.72
2023-03-31T08:08:06.139Z,3.83
2023-03-31T08:10:32.449Z,4.38
2023-03-31T08:12:58.877Z,4.65
2023-03-31T08:15:25.405Z,4.95
2023-03-31T08:17:51.735Z,6.53
2023-03-31T08:20:18.066Z,6.30
2023-03-31T08:22:44.353Z,4.18
2023-03-31T08:25:10.988Z,5.93
2023-03-31T08:27:38.492Z,6.95
2023-03-31T08:30:06.667Z,6.90
2023-03-31T08:32:33.649Z,4.13
2023-03-31T08:35:00.383Z,5.57
2023-03-31T08:37:28.141Z,4.57
2023-03-31T08:39:55.699Z,4.68
2023-03-31T08:42:28.078Z,6.00
2023-03-31T08:45:14.630Z,5.07
2023-03-31T08:47:41.537Z,4.95
2023-03-31T08:50:12.498Z,6.22
2023-03-31T08:52:42.155Z,5.82
2023-03-31T08:55:12.470Z,6.05
2023-03-31T08:57:45.446Z,5.22
2023-03-31T09:00:18.541Z,6.07
2023-03-31T09:03:00.829Z,6.03
2023-03-31T09:05:27.282Z,7.47
2023-03-31T09:08:12.436Z,9.20
2023-03-31T09:10:45.377Z,9.18
2023-03-31T09:13:38.053Z,6.00
2023-03-31T09:16:07.372Z,7.50
2023-03-31T09:18:38.623Z,8.02
2023-03-31T09:21:13.977Z,7.07
2023-03-31T09:23:46.882Z,6.53
2023-03-31T09:26:21.151Z,8.52
2023-03-31T09:28:47.447Z,6.65
2023-03-31T09:31:14.749Z,10.65
2023-03-31T09:33:44.556Z,8.85
2023-03-31T09:36:15.885Z,6.32
2023-03-31T09:38:43.028Z,11.23
2023-03-31T09:41:09.657Z,8.38
2023-03-31T09:43:35.989Z,8.88
2023-03-31T09:46:14.570Z,9.18
2023-03-31T09:48:42.302Z,9.15
2023-03-31T09:51:15.826Z,8.52
2023-03-31T09:54:17.685Z,10.27
2023-03-31T09:56:46.752Z,8.10
2023-03-31T09:59:14.824Z,11.30
2023-03-31T10:01:42.140Z,7.40
2023-03-31T10:04:08.979Z,8.05
2023-03-31T10:06:39.413Z,9.13
2023-03-31T10:09:06.324Z,7.65
2023-03-31T10:11:32.787Z,7.82
2023-03-31T10:14:01.807Z,6.07
2023-03-31T10:16:30.365Z,7.57
2023-03-31T10:19:11.679Z,5.07
2023-03-31T10:21:38.907Z,7.45
2023-03-31T10:24:09.540Z,9.27
2023-03-31T10:26:36.198Z,8.25
2023-03-31T10:29:02.810Z,6.13
2023-03-31T10:31:40.211Z,6.25
2023-03-31T10:34:07.900Z,6.63
2023-03-31T10:36:35.167Z,6.35
2023-03-31T10:39:05.278Z,7.60
2023-03-31T10:41:31.548Z,7.90
2023-03-31T10:43:58.783Z,5.20
2023-03-31T10:46:44.217Z,6.70
2023-03-31T10:49:24.612Z,5.30
2023-03-31T10:51:56.099Z,6.20
2023-03-31T10:54:22.375Z,6.65
2023-03-31T10:56:54.028Z,5.03
2023-03-31T10:59:23.480Z,5.95
2023-03-31T11:02:08.710Z,7.13
2023-03-31T11:04:35.453Z,3.80
2023-03-31T11:07:13.655Z,5.93
2023-03-31T11:09:46.342Z,6.07
2023-03-31T11:12:27.012Z,7.38
2023-03-31T11:14:53.608Z,6.57
2023-03-31T11:17:19.982Z,6.28
2023-03-31T11:19:55.288Z,5.50
2023-03-31T11:22:52.522Z,7.70
2023-03-31T11:25:29.463Z,7.60
2023-03-31T11:27:58.474Z,5.78
2023-03-31T11:30:28.866Z,6.20
2023-03-31T11:32:58.308Z,6.60
2023-03-31T11:35:43.794Z,5.40
2023-03-31T11:38:19.935Z,8.15
2023-03-31T11:40:56.648Z,9.02
2023-03-31T11:43:40.080Z,8.60
2023-03-31T11:46:25.008Z,7.35
2023-03-31T11:48:55.193Z,6.32
2023-03-31T11:51:25.676Z,10.18
2023-03-31T11:53:53.495Z,7.22
2023-03-31T11:56:20.870Z,6.38
2023-03-31T11:58:51.434Z,7.28
2023-03-31T12:01:20.667Z,8.32
2023-03-31T12:03:58.948Z,5.05
2023-03-31T12:06:28.128Z,5.90
2023-03-31T12:09:14.675Z,6.43
2023-03-31T12:16:46.047Z,7.45
2023-03-31T12:19:18.449Z,4.93
2023-03-31T12:21:48.620Z,6.47
2023-03-31T12:24:15.034Z,7.03
2023-03-31T12:26:57.625Z,7.32
2023-03-31T12:29:23.940Z,5.80
2023-03-31T12:31:51.050Z,5.78
2023-03-31T12:34:18.968Z,6.43
2023-03-31T12:36:45.417Z,5.13
2023-03-31T12:39:14.831Z,6.00
2023-03-31T12:41:53.342Z,7.53
2023-03-31T12:47:50.720Z,6.95
2023-03-31T12:50:27.134Z,7.15
2023-03-31T12:57:05.724Z,8.48
2023-03-31T13:00:05.745Z,4.68
2023-03-31T13:02:35.198Z,6.32
2023-03-31T13:05:21.904Z,5.63
2023-03-31T13:10:14.713Z,6.60
2023-03-31T13:12:41.537Z,6.03
2023-03-31T13:15:13.365Z,5.97
2023-03-31T13:17:41.264Z,5.25
2023-03-31T13:20:36.023Z,6.38
2023-03-31T13:23:02.657Z,6.70
2023-03-31T13:25:34.752Z,4.78
2023-03-31T13:28:09.381Z,5.57
2023-03-31T13:30:35.766Z,5.57
2023-03-31T13:33:09.984Z,8.18
2023-03-31T13:35:37.772Z,5.18
2023-03-31T13:38:17.280Z,5.60
2023-03-31T13:41:00.506Z,5.00
2023-03-31T13:43:33.045Z,5.85
2023-03-31T13:46:06.556Z,5.57
2023-03-31T13:48:37.647Z,4.57
2023-03-31T13:51:16.380Z,4.03
2023-03-31T13:53:54.527Z,9.93
2023-03-31T13:56:28.728Z,6.78
2023-03-31T13:59:19.484Z,6.97
2023-03-31T14:02:02.119Z,5.63
2023-03-31T14:05:07.248Z,5.90
2023-03-31T14:07:52.209Z,5.97
2023-03-31T14:10:27.289Z,5.10
2023-03-31T14:13:04.370Z,7.15
2023-03-31T14:15:32.027Z,7.63
2023-03-31T14:18:11.316Z,4.97
2023-03-31T14:20:42.508Z,6.03
2023-03-31T14:23:13.136Z,5.40
2023-03-31T14:25:57.069Z,5.53
2023-03-31T14:28:23.652Z,4.45
2023-03-31T14:31:13.391Z,5.88
2023-03-31T14:33:52.029Z,5.05
2023-03-31T14:36:33.744Z,5.97
2023-03-31T14:39:04.669Z,4.85
2023-03-31T14:41:31.129Z,4.47
2023-03-31T14:44:00.136Z,4.00
2023-03-31T14:46:26.530Z,6.65
2023-03-31T14:48:52.931Z,4.55
2023-03-31T14:51:30.189Z,5.82
2023-03-31T14:53:59.950Z,5.20
2023-03-31T14:56:38.514Z,4.82
2023-03-31T14:59:06.391Z,4.13
2023-03-31T15:01:39.941Z,4.75
2023-03-31T15:04:16.791Z,4.22
2023-03-31T15:06:48.073Z,4.35
2023-03-31T15:09:19.795Z,5.15
2023-03-31T15:11:47.181Z,4.15
2023-03-31T15:14:57.168Z,5.00
2023-03-31T15:17:25.601Z,3.92
2023-03-31T15:19:53.756Z,4.57
2023-03-31T15:22:21.782Z,3.80
2023-03-31T15:24:48.076Z,4.25
2023-03-31T15:27:23.467Z,3.28
2023-03-31T15:29:58.473Z,3.10
2023-03-31T15:32:27.202Z,2.42
2023-03-31T15:34:54.600Z,4.18
2023-03-31T15:37:22.375Z,2.35
2023-03-31T15:39:49.058Z,2.42
2023-03-31T15:42:15.621Z,2.00
2023-03-31T15:44:46.936Z,3.30
2023-03-31T15:47:13.895Z,3.47
2023-03-31T15:50:00.586Z,3.45
2023-03-31T15:54:53.201Z,3.05
2023-03-31T15:57:19.927Z,3.08
2023-03-31T15:59:55.192Z,2.28
2023-03-31T16:04:50.485Z,4.45
2023-03-31T16:07:21.012Z,2.10
2023-03-31T16:09:52.789Z,2.65
2023-03-31T16:12:33.045Z,2.45
2023-03-31T16:15:04.663Z,2.97
2023-03-31T16:17:45.476Z,1.95
2023-03-31T16:20:20.441Z,2.00
2023-03-31T16:22:49.649Z,2.78
2023-03-31T16:25:18.325Z,2.28
2023-03-31T16:27:50.328Z,2.42
2023-03-31T16:30:19.128Z,4.93
2023-03-31T16:33:02.644Z,2.10
2023-03-31T16:35:56.388Z,2.92
2023-03-31T16:38:23.754Z,3.13
2023-03-31T16:40:51.720Z,4.10
2023-03-31T16:43:24.457Z,2.63
2023-03-31T16:45:51.750Z,1.92
2023-03-31T16:48:19.073Z,2.70
2023-03-31T16:50:46.503Z,2.28
2023-03-31T16:53:18.856Z,1.58
2023-03-31T16:55:48.765Z,2.90
2023-03-31T16:58:15.593Z,2.15
2023-03-31T17:00:47.803Z,2.13
2023-03-31T17:03:15.707Z,1.65
2023-03-31T17:05:43.178Z,3.50
2023-03-31T17:08:13.501Z,2.60
2023-03-31T17:10:40.737Z,3.05
2023-03-31T17:13:07.811Z,3.83
2023-03-31T17:15:36.434Z,2.50
2023-03-31T17:18:03.322Z,3.72
2023-03-31T17:20:30.934Z,4.10
2023-03-31T17:22:57.733Z,4.85
2023-03-31T17:25:24.067Z,2.95
2023-03-31T17:27:50.400Z,3.72
2023-03-31T17:30:16.814Z,3.60
2023-03-31T17:32:43.181Z,4.72
2023-03-31T17:35:11.599Z,3.38
2023-03-31T17:37:38.622Z,2.78
2023-03-31T17:40:06.321Z,4.95
2023-03-31T17:42:32.639Z,2.50
2023-03-31T17:44:59.075Z,4.60
2023-03-31T17:47:25.445Z,3.58
2023-03-31T17:49:51.899Z,3.15
2023-03-31T17:52:18.209Z,3.35
2023-03-31T17:54:44.601Z,4.00
2023-03-31T17:57:10.966Z,3.97
2023-03-31T17:59:38.475Z,5.55
2023-03-31T18:02:05.504Z,3.22
2023-03-31T18:04:32.102Z,3.53
2023-03-31T18:06:58.434Z,1.85
2023-03-31T18:09:25.055Z,3.40
2023-03-31T18:11:51.733Z,3.25
2023-03-31T18:14:18.500Z,4.10
2023-03-31T18:16:44.759Z,2.55
2023-03-31T18:19:11.054Z,3.25
2023-03-31T18:21:37.318Z,5.53
2023-03-31T18:24:03.758Z,3.58
2023-03-31T18:26:30.624Z,4.20
2023-03-31T18:28:57.043Z,4.47
2023-03-31T18:31:24.802Z,3.13
2023-03-31T18:33:52.228Z,4.30
2023-03-31T18:36:19.640Z,3.00
2023-03-31T18:38:46.981Z,4.05
2023-03-31T18:41:14.421Z,4.28
2023-03-31T18:43:40.795Z,3.50
2023-03-31T18:46:07.138Z,3.80
2023-03-31T18:48:34.845Z,4.28
2023-03-31T18:51:01.510Z,4.03
2023-03-31T18:53:27.906Z,3.50
2023-03-31T18:55:56.407Z,3.70
2023-03-31T18:58:23.310Z,3.25
2023-03-31T19:00:50.307Z,2.92
2023-03-31T19:03:16.815Z,3.38
2023-03-31T19:05:43.301Z,3.85
2023-03-31T19:08:09.638Z,3.90
2023-03-31T19:10:36.512Z,4.07
2023-03-31T19:13:03.060Z,5.93
2023-03-31T19:15:29.575Z,6.28
2023-03-31T19:17:56.328Z,4.70
2023-03-31T19:20:22.635Z,4.45
2023-03-31T19:22:50.401Z,3.55
2023-03-31T19:25:18.000Z,5.35
2023-03-31T19:27:44.642Z,5.57
2023-03-31T19:30:15.267Z,5.68
2023-03-31T19:32:41.574Z,3.38
2023-03-31T19:35:08.190Z,5.03
2023-03-31T19:37:34.545Z,4.40
2023-03-31T19:40:02.405Z,5.35
2023-03-31T19:42:28.708Z,5.28
2023-03-31T19:44:55.001Z,4.70
2023-03-31T19:47:21.770Z,2.80
2023-03-31T19:49:48.239Z,2.58
2023-03-31T19:52:14.554Z,3.83
2023-03-31T19:54:41.089Z,5.10
2023-03-31T19:57:08.988Z,4.88
2023-03-31T19:59:35.666Z,5.28
2023-03-31T20:02:05.166Z,4.18
2023-03-31T20:04:32.202Z,3.72
2023-03-31T20:06:59.085Z,6.55
2023-03-31T20:09:25.458Z,4.88
2023-03-31T20:11:53.871Z,5.20
2023-03-31T20:14:20.678Z,4.38
2023-03-31T20:16:47.910Z,4.82
2023-03-31T20:19:16.359Z,5.10
2023-03-31T20:21:43.501Z,4.57
2023-03-31T20:24:13.850Z,4.80
2023-03-31T20:26:40.411Z,3.20
2023-03-31T20:29:06.820Z,5.07
2023-03-31T20:31:36.361Z,3.88
2023-03-31T20:34:03.466Z,4.22
2023-03-31T20:36:31.696Z,4.13
2023-03-31T20:38:59.184Z,5.07
2023-03-31T20:41:27.136Z,4.18
2023-03-31T20:43:54.040Z,3.90
2023-03-31T20:46:21.003Z,4.13
2023-03-31T20:48:49.510Z,4.63
2023-03-31T20:51:17.396Z,5.28
2023-03-31T20:53:44.566Z,4.80
2023-03-31T20:56:12.123Z,4.53
2023-03-31T20:58:38.783Z,3.45
2023-03-31T21:01:06.197Z,5.47
2023-03-31T21:03:32.591Z,5.22
2023-03-31T21:06:06.212Z,4.00
2023-03-31T21:08:38.296Z,4.18
2023-03-31T21:11:04.696Z,3.78
2023-03-31T21:13:31.988Z,4.45
2023-03-31T21:15:58.917Z,5.97
2023-03-31T21:18:29.312Z,4.00
2023-03-31T21:20:56.857Z,3.15
2023-03-31T21:23:23.809Z,4.10
2023-03-31T21:25:51.348Z,2.67
2023-03-31T21:28:19.825Z,3.03
2023-03-31T21:31:02.708Z,4.53
2023-03-31T21:33:29.593Z,4.32
2023-03-31T21:35:56.594Z,3.92
2023-03-31T21:38:23.380Z,3.47
2023-03-31T21:40:52.321Z,5.75
2023-03-31T21:43:25.970Z,3.15
2023-03-31T21:45:53.422Z,3.25
2023-03-31T21:48:25.246Z,4.55
2023-03-31T21:50:54.523Z,3.78
2023-03-31T21:53:21.562Z,4.97
2023-03-31T21:55:50.225Z,4.13
2023-03-31T21:58:17.791Z,3.90
2023-03-31T22:00:44.553Z,2.88
2023-03-31T22:03:26.521Z,5.28
2023-03-31T22:05:54.314Z,2.33
2023-03-31T22:08:20.677Z,2.95
2023-03-31T22:10:50.218Z,2.30
2023-03-31T22:13:16.506Z,2.85
2023-03-31T22:15:42.968Z,3.95
2023-03-31T22:18:09.384Z,3.13
2023-03-31T22:20:35.699Z,3.40
2023-03-31T22:23:02.079Z,2.95
2023-03-31T22:25:28.348Z,2.90
2023-03-31T22:27:54.649Z,2.83
2023-03-31T22:30:21.426Z,3.30
2023-03-31T22:32:48.037Z,3.35
2023-03-31T22:35:15.854Z,2.67
2023-03-31T22:37:42.557Z,3.50
2023-03-31T22:40:09.287Z,4.07
2023-03-31T22:42:35.747Z,3.05
2023-03-31T22:45:02.250Z,3.03
2023-03-31T22:47:28.651Z,2.95
2023-03-31T22:49:54.990Z,4.15
2023-03-31T22:52:21.432Z,2.80
2023-03-31T22:54:48.506Z,3.50
2023-03-31T22:57:15.088Z,2.83
2023-03-31T22:59:41.653Z,3.95
2023-03-31T23:02:08.027Z,4.88
2023-03-31T23:04:34.422Z,2.90
2023-03-31T23:07:00.818Z,3.13
2023-03-31T23:09:27.130Z,2.70
2023-03-31T23:11:53.443Z,2.97
2023-03-31T23:14:19.977Z,2.20
2023-03-31T23:16:46.336Z,3.60
2023-03-31T23:19:12.697Z,3.17
2023-03-31T23:21:38.976Z,2.78
2023-03-31T23:24:05.733Z,4.30
2023-03-31T23:26:32.942Z,4.47
2023-03-31T23:28:59.487Z,2.28
2023-03-31T23:31:30.390Z,4.28
2023-03-31T23:33:57.726Z,4.20
2023-03-31T23:36:25.568Z,3.63
2023-03-31T23:38:52.872Z,3.60
2023-03-31T23:41:19.650Z,2.50
2023-03-31T23:43:46.197Z,2.53
2023-03-31T23:46:13.506Z,3.05
2023-03-31T23:48:40.098Z,2.13
2023-03-31T23:51:07.550Z,1.90
2023-03-31T23:53:34.333Z,1.65
2023-03-31T23:56:03.577Z,2.58
2023-03-31T23:58:30.129Z,4.57
